Maran Castor — SXLH — position and weather

sailwx.info

Track history (hours):
 
Tides and Currents Weather Stations Pressure Air Temp Water Temp Dewpoint Dewpoint Depression Visibility Wind Speed Wind Dir Waves Ship Positions

Maran Castor

Last reported at 2018-Apr-04 23:01 UTC. Time now 2018-Apr-25 22:06 UTC.
Position N 22°39' E 069°29'.
Warning: this ship's position is 20 days out of date.

Length 332 m; draft 20.3 m.

Type: Tanker. MMSI: 239808000.

Date/timePositionNaut miles runAvg speedWind from/ knotsBaromVisibWave heightAir tempDewpointWater temp
2018-Apr-04 23:01N 22°39' E 069°29'410.0
2018-Apr-04 22:40N 22°39' E 069°33'2 9.8
2018-Apr-04 22:30N 22°38' E 069°34'13 6.7
2018-Apr-04 20:36N 22°39' E 069°48'0 0.8
2018-Apr-04 20:29N 22°39' E 069°48'3 0.1
2018-Apr-03 02:54N 22°36' E 069°50'0 0.1
2018-Apr-03 02:27N 22°36' E 069°50'0 0.7
2018-Apr-03 01:49N 22°36' E 069°49'5 0.1
2018-Apr-01 04:22N 22°39' E 069°54'0 0.3
2018-Apr-01 02:52N 22°39' E 069°54'0 0.0
2018-Apr-01 02:28N 22°39' E 069°54'0 0.0
2018-Apr-01 01:58N 22°39' E 069°54'0 0.0
2018-Mar-31 22:40N 22°39' E 069°54'0 0.3
2018-Mar-31 22:22N 22°39' E 069°54'0 0.5
2018-Mar-31 21:52N 22°39' E 069°54'118 5.3
2018-Mar-30 23:24N 21°43' E 068°02'715.4
2018-Mar-30 22:56N 21°37' E 067°57'8015.6
2018-Mar-30 17:50N 20°31' E 067°10'515.5
2018-Mar-30 17:29N 20°26' E 067°07'715.3
2018-Mar-30 17:00N 20°20' E 067°02'815.1
2018-Mar-30 16:28N 20°13' E 066°58'914.9
2018-Mar-30 15:52N 20°06' E 066°52'514.9
2018-Mar-30 15:31N 20°01' E 066°49'714.6
2018-Mar-30 15:00N 19°55' E 066°45'2113.8
2018-Mar-30 13:30N 19°38' E 066°33'712.7
2018-Mar-30 12:56N 19°32' E 066°28'812.9
2018-Mar-30 12:21N 19°26' E 066°24'16813.0
2018-Mar-29 23:22N 17°06' E 064°46'613.2
2018-Mar-29 22:56N 17°01' E 064°43'2013.4
2018-Mar-29 21:29N 16°45' E 064°31'813.7
2018-Mar-29 20:55N 16°38' E 064°27'613.6
2018-Mar-29 20:29N 16°33' E 064°24'2313.7
2018-Mar-29 18:48N 16°14' E 064°10'7213.3
2018-Mar-29 13:25N 15°14' E 063°29'  
Track history (hours):
 
Tides and Currents Weather Stations Pressure Air Temp Water Temp Dewpoint Dewpoint Depression Visibility Wind Speed Wind Dir Waves Ship Positions

Maran Castor

Last reported at 2018-Apr-04 23:01 UTC. Time now 2018-Apr-25 22:06 UTC.
Position N 22°39' E 069°29'.
Warning: this ship's position is 20 days out of date.

Length 332 m; draft 20.3 m.

Type: Tanker. MMSI: 239808000.

Date/timePositionNaut miles runAvg speedWind from/ knotsBaromVisibWave heightAir tempDewpointWater temp
2018-Apr-04 23:01N 22°39' E 069°29'410.0
2018-Apr-04 22:40N 22°39' E 069°33'2 9.8
2018-Apr-04 22:30N 22°38' E 069°34'13 6.7
2018-Apr-04 20:36N 22°39' E 069°48'0 0.8
2018-Apr-04 20:29N 22°39' E 069°48'3 0.1
2018-Apr-03 02:54N 22°36' E 069°50'0 0.1
2018-Apr-03 02:27N 22°36' E 069°50'0 0.7
2018-Apr-03 01:49N 22°36' E 069°49'5 0.1
2018-Apr-01 04:22N 22°39' E 069°54'0 0.3
2018-Apr-01 02:52N 22°39' E 069°54'0 0.0
2018-Apr-01 02:28N 22°39' E 069°54'0 0.0
2018-Apr-01 01:58N 22°39' E 069°54'0 0.0
2018-Mar-31 22:40N 22°39' E 069°54'0 0.3
2018-Mar-31 22:22N 22°39' E 069°54'0 0.5
2018-Mar-31 21:52N 22°39' E 069°54'118 5.3
2018-Mar-30 23:24N 21°43' E 068°02'715.4
2018-Mar-30 22:56N 21°37' E 067°57'8015.6
2018-Mar-30 17:50N 20°31' E 067°10'515.5
2018-Mar-30 17:29N 20°26' E 067°07'715.3
2018-Mar-30 17:00N 20°20' E 067°02'815.1
2018-Mar-30 16:28N 20°13' E 066°58'914.9
2018-Mar-30 15:52N 20°06' E 066°52'514.9
2018-Mar-30 15:31N 20°01' E 066°49'714.6
2018-Mar-30 15:00N 19°55' E 066°45'2113.8
2018-Mar-30 13:30N 19°38' E 066°33'712.7
2018-Mar-30 12:56N 19°32' E 066°28'812.9
2018-Mar-30 12:21N 19°26' E 066°24'16813.0
2018-Mar-29 23:22N 17°06' E 064°46'613.2
2018-Mar-29 22:56N 17°01' E 064°43'2013.4
2018-Mar-29 21:29N 16°45' E 064°31'813.7
2018-Mar-29 20:55N 16°38' E 064°27'613.6
2018-Mar-29 20:29N 16°33' E 064°24'2313.7
2018-Mar-29 18:48N 16°14' E 064°10'7213.3
2018-Mar-29 13:25N 15°14' E 063°29'  

Dump ship's entire track history